• Join FlightAware (Why Join?)
  • Login
  • US Flag 
12:54PM EDT


 

Airport Tracker/Info


-or-


 

Live Flight TrackerFlight Track Log ✈ N51EM ✈ 26-Jul-2014 ✈ KRSW - KABE

Flight Track Log - Related Links

Times and Time Zones

All times are in EDT time to prevent confusion due to time zone crossing. See the N51EM flight status page for this flight to view local times or setup timezone preferences in your user account.

Time Position Orientation Groundspeed Altitude Reporting Facility
EDT Latitude Longitude Course Direction KTS MPH feet Rate Location/Type
06:47PM 26.6236 -81.6975 346° North 254 292 3,100  Level Miami Center
06:48PM 26.6919 -81.7042 355° North 248 285 5,800 2,580 Climbing Miami Center
06:50PM 26.7692 -81.7133 354° North 258 297 8,500 2,460 Climbing Miami Center
06:51PM 26.8436 -81.7186 356° North 279 321 10,900 2,340 Climbing Miami Center
06:52PM 27.0950 -81.7647 340° North  Level FlightAware Approximate
06:52PM 26.9258 -81.6989 12° North 286 329 13,400  Level Miami Center
06:53PM 27.2028 -81.8008 346° North  Level FlightAware Approximate
06:53PM 27.0053 -81.6811 11° North 289 333 15,300  Level Miami Center
06:54PM 27.0822 -81.6644 11° North 308 354 17,200 1,800 Climbing Miami Center
06:55PM 27.1803 -81.6417 12° North 315 362 19,100 1,800 Climbing Miami Center
06:56PM 27.2742 -81.6208 11° North 325 374 21,000 1,740 Climbing Miami Center
06:57PM 27.3683 -81.6003 11° North 329 379 22,700 1,380 Climbing Miami Center
06:58PM 27.4639 -81.5783 12° North 333 383 23,900 1,080 Climbing Miami Center
06:59PM 27.5492 -81.5586 12° North 339 390 25,000 480 Climbing Miami Center
07:00PM 27.6461 -81.5364 11° North 348 400 25,000 1,260 Level Miami Center
07:01PM 27.7606 -81.5119 11° North 358 412 27,700 1,800 Climbing Miami Center
07:02PM 27.8603 -81.5103 North 366 421 28,800 960 Climbing Miami Center
07:03PM 27.9636 -81.5100 360° North 367 422 29,800 900 Climbing Miami Center
07:04PM 28.0681 -81.5106 360° North 369 425 30,700 660 Climbing Miami Center
07:05PM 28.1761 -81.5108 360° North 381 438 31,200 480 Climbing Miami Center
07:06PM 28.2878 -81.5103 360° North 396 456 31,700 540 Climbing Miami Center
07:07PM 28.4000 -81.4886 10° North 410 472 32,400 780 Climbing Miami Center
07:08PM 28.5275 -81.4339 21° North 407 468 33,300 720 Climbing Miami Center
07:09PM 28.6342 -81.3922 19° North 406 467 33,900 300 Climbing Miami Center
07:10PM 28.7253 -81.3656 14° North 399 459 34,000  Climbing Jacksonville Center
07:11PM 28.8442 -81.3756 356° North 399 459 34,000  Level Jacksonville Center
07:12PM 28.9675 -81.3881 355° North 417 480 34,000  Level Jacksonville Center
07:13PM 29.0886 -81.3981 356° North 429 494 34,000  Level Jacksonville Center
07:14PM 29.2119 -81.4081 356° North 439 505 34,000  Level Jacksonville Center
07:15PM 29.3372 -81.4181 356° North 445 512 34,000 120 Level Jacksonville Center
07:16PM 29.4733 -81.4350 354° North 440 506 34,300 540 Climbing Jacksonville Center
07:17PM 29.5922 -81.4453 356° North 439 505 35,100 720 Climbing Jacksonville Center
07:18PM 29.7072 -81.4531 357° North 426 490 35,800 660 Climbing Jacksonville Center
07:19PM 29.8197 -81.4322 North 404 465 36,500 600 Climbing Jacksonville Center
07:20PM 29.9256 -81.3828 22° Northeast 404 465 37,000 240 Climbing Jacksonville Center
07:21PM 30.0253 -81.3381 21° North 410 472 37,000  Level Jacksonville Center
07:22PM 30.1375 -81.2906 20° North 420 483 37,000  Level Jacksonville Center
07:23PM 30.2494 -81.2406 21° North 425 489 37,000  Level Jacksonville Center
07:24PM 30.3658 -81.1881 21° North 431 496 37,000  Level Jacksonville Center
07:25PM 30.4819 -81.1378 20° North 431 496 37,000  Level Jacksonville Center
07:26PM 30.5981 -81.0850 21° North 431 496 37,000  Level Jacksonville Center
07:27PM 30.7164 -81.0344 20° North 436 502 37,000  Level Jacksonville Center
07:28PM 30.8328 -80.9836 21° North 441 507 37,000  Level Jacksonville Center
07:29PM 30.9508 -80.9306 21° North 447 514 37,000  Level Jacksonville Center
07:30PM 31.0669 -80.8794 21° North 447 514 37,000  Level Jacksonville Center
07:31PM 31.1831 -80.8283 21° North 447 514 37,000  Level Jacksonville Center
07:32PM 31.3011 -80.7747 21° North 447 514 37,000  Level Jacksonville Center
07:33PM 31.4172 -80.7236 21° North 442 509 37,000  Level Jacksonville Center
07:34PM 31.5333 -80.6697 22° Northeast 442 509 37,000  Level Jacksonville Center
07:35PM 31.6472 -80.6156 22° Northeast 442 509 37,000  Level Jacksonville Center
07:36PM 31.7733 -80.5589 21° North 442 509 37,000  Level Jacksonville Center
07:37PM 31.8872 -80.5069 21° North 442 509 37,000  Level Jacksonville Center
07:38PM 31.9886 -80.4578 22° Northeast 442 509 37,000  Level Jacksonville Center
07:39PM 32.1025 -80.4058 21° North 442 509 37,000  Level Jacksonville Center
07:40PM 32.2142 -80.3561 21° North 437 503 37,000  Level Jacksonville Center
07:41PM 32.3258 -80.3014 22° Northeast 431 496 37,000  Level Jacksonville Center
07:42PM 32.4375 -80.2514 21° North 426 490 37,000  Level Jacksonville Center
07:43PM 32.5469 -80.1989 22° Northeast 426 490 37,000  Level Jacksonville Center
07:44PM 32.6586 -80.1486 21° North 426 490 37,000  Level Jacksonville Center
07:45PM 32.7681 -80.0961 22° Northeast 426 490 37,000  Level Jacksonville Center
07:46PM 32.8756 -80.0433 22° Northeast 426 490 37,000  Level Jacksonville Center
07:47PM 32.9894 -80.0075 15° North 426 490 37,000  Level Jacksonville Center
07:48PM 33.1200 -79.9683 14° North 421 484 37,000  Level Jacksonville Center
07:49PM 33.2322 -79.9400 12° North 421 484 37,000  Level Jacksonville Center
07:50PM 33.3461 -79.9089 13° North 421 484 37,000  Level Jacksonville Center
07:51PM 33.4603 -79.8750 14° North 421 484 37,000  Level Jacksonville Center
07:52PM 33.5722 -79.8439 13° North 416 479 37,000  Level Jacksonville Center
07:53PM 33.6839 -79.8100 14° North 410 472 37,000  Level Jacksonville Center
07:54PM 33.7958 -79.7786 13° North 410 472 37,000  Level Jacksonville Center
07:55PM 33.9058 -79.7472 13° North 410 472 37,000  Level Jacksonville Center
07:56PM 34.0175 -79.7131 14° North 410 472 37,000  Level Jacksonville Center
07:58PM 34.2464 -79.6442 14° North 414 476 37,000  Level Washington Center
07:59PM 34.3594 -79.6128 13° North 414 476 37,000  Level Washington Center
08:00PM 34.4703 -79.5789 14° North 414 476 37,000  Level Washington Center
08:01PM 34.5844 -79.5486 12° North 418 481 37,000  Level Washington Center
08:02PM 34.6961 -79.5142 14° North 416 479 37,000  Level Washington Center
08:03PM 34.8281 -79.4742 14° North 411 473 37,000  Level Washington Center
08:04PM 34.9400 -79.4422 13° North 411 473 37,000 -420 Level Washington Center
08:05PM 35.0511 -79.4089 14° North 411 473 36,200 -720 Descending Washington Center
08:06PM 35.1636 -79.3739 14° North 411 473 35,500 -900 Descending Washington Center
08:07PM 35.2781 -79.3386 14° North 418 481 34,400 -720 Descending Washington Center
08:08PM 35.3911 -79.3050 14° North 418 481 34,000 -240 Descending Washington Center
08:09PM 35.5019 -79.2711 14° North 414 476 34,000  Level Washington Center
08:10PM 35.6122 -79.2375 14° North 407 468 34,000  Level Washington Center
08:12PM 35.7436 -79.1975 14° North 407 468 34,000  Level Washington Center
08:13PM 35.8536 -79.1642 14° North 406 467 34,000 120 Level Washington Center
08:14PM 35.9614 -79.1303 14° North 403 464 34,300 300 Climbing Washington Center
08:15PM 36.0706 -79.1272 North 394 453 34,700 300 Climbing Washington Center
08:16PM 36.1803 -79.1233 North 393 452 35,000 120 Climbing Washington Center
08:17PM 36.2894 -79.1181 North 393 452 35,000  Level Washington Center
08:18PM 36.3997 -79.1128 North 393 452 35,000  Level Washington Center
08:19PM 36.5317 -79.1069 North 394 453 35,000  Level Washington Center
08:20PM 36.6428 -79.1022 North 397 457 35,000 180 Level Washington Center
08:21PM 36.7469 -79.0981 North 396 456 35,400 360 Climbing Washington Center
08:22PM 36.8522 -79.0944 North 384 442 35,800 480 Climbing Washington Center
08:23PM 36.9758 -79.0886 North 377 434 36,400 480 Climbing Washington Center
08:24PM 37.0775 -79.0847 North 371 427 36,800 240 Climbing Washington Center
08:25PM 37.1789 -79.0811 North 370 426 37,000 60 Climbing Washington Center
08:26PM 37.2833 -79.0753 North 372 428 37,000  Level Washington Center
08:27PM 37.3858 -79.0347 17° North 394 453 37,000  Level Washington Center
08:28PM 37.4864 -78.9781 24° Northeast 395 455 37,000 -600 Level Washington Center
08:29PM 37.6086 -78.9097 24° Northeast 400 460 35,800 -1,440 Descending Washington Center
08:30PM 37.7139 -78.8508 24° Northeast 414 476 34,100 -1,020 Descending Washington Center
08:31PM 37.8139 -78.7939 24° Northeast 400 460 33,800 -840 Descending Washington Center
08:32PM 37.9144 -78.7350 25° Northeast 397 457 32,400 -1,320 Descending Washington Center
08:33PM 38.0206 -78.6739 24° Northeast 412 474 31,100 -1,260 Descending Washington Center
08:34PM 38.1267 -78.6136 24° Northeast 417 480 29,800 -1,500 Descending Washington Center
08:35PM 38.2525 -78.5422 24° Northeast 416 479 28,100 -1,380 Descending Washington Center
08:36PM 38.3489 -78.4861 25° Northeast 409 471 27,000 -660 Descending Washington Center
08:37PM 38.4475 -78.4283 25° Northeast 392 451 26,800 -1,200 Descending Washington Center
08:38PM 38.5447 -78.3711 25° Northeast 387 445 24,600 -1,860 Descending Washington Center
08:39PM 38.6486 -78.3108 24° Northeast 405 466 23,000 -1,740 Descending Washington Center
08:40PM 38.7703 -78.2397 24° Northeast 399 459 21,100 -960 Descending Washington Center
08:41PM 38.8700 -78.1808 25° Northeast 395 455 21,000 -60 Descending Washington Center
08:42PM 38.9725 -78.1200 25° Northeast 399 459 21,000  Level Washington Center
08:43PM 39.0761 -78.0600 24° Northeast 400 460 21,000  Level Washington Center
08:45PM 39.1800 -77.9989 25° Northeast 403 464 21,000 -180 Level Washington Center
08:46PM 39.2842 -77.9369 25° Northeast 406 467 20,700 -600 Descending Washington Center
08:47PM 39.3867 -77.8761 25° Northeast 407 468 19,800 -840 Descending Washington Center
08:48PM 39.4906 -77.8128 25° Northeast 409 471 19,000 -420 Descending Washington Center
08:49PM 39.5906 -77.7517 25° Northeast 401 461 19,000  Level Washington Center
08:50PM 39.7089 -77.6828 24° Northeast 390 449 19,000  Level Washington Center
08:50PM 39.7694 -77.6439 26° Northeast 395 455 19,000  Level New York Center
08:51PM 39.8569 -77.5508 39° Northeast 421 484 19,000  Level New York Center
08:52PM 39.9144 -77.4106 62° Northeast 414 476 19,000  Level New York Center
08:53PM 39.9664 -77.2781 63° Northeast 412 474 19,000  Level New York Center
08:54PM 40.0189 -77.1439 63° Northeast 415 478 19,000  Level New York Center
08:55PM 40.0750 -76.9997 63° Northeast 418 481 19,000 -240 Level New York Center
08:57PM 40.1258 -76.8642 64° Northeast 417 480 18,500 -840 Descending New York Center
08:58PM 40.1803 -76.7222 63° Northeast 418 481 17,300 -1,200 Descending New York Center
08:59PM 40.2300 -76.5892 64° Northeast 410 472 16,100 -1,260 Descending New York Center
09:00PM 40.2819 -76.4492 64° Northeast 411 473 14,800 -1,380 Descending New York Center
09:01PM 40.3333 -76.3122 64° Northeast 404 465 13,300 -1,440 Descending New York Center
09:02PM 40.3772 -76.1900 65° Northeast 373 429 11,900 -1,260 Descending New York Center
09:02PM 40.4203 -76.0833 62° Northeast 380 437 11,000 -780 Descending New York Center
09:03PM 40.4292 -76.0561 67° East 381 438 11,100 -1,020 Climbing New York Center
09:04PM 40.4750 -75.9308 64° Northeast 379 436 9,800 -1,320 Descending New York Center
09:05PM 40.5333 -75.8311 52° Northeast 341 392 8,500 -1,200 Descending New York Center
09:06PM 40.5869 -75.7619 44° Northeast 302 348 7,500 -1,260 Descending New York Center
09:07PM 40.6472 -75.6811 45° Northeast 289 333 6,100 -1,380 Descending New York Center
09:08PM 40.6844 -75.5964 60° Northeast 282 325 4,800 -1,440 Descending New York Center
09:08PM 40.6903 -75.5806 64° Northeast 286 329 4,500 -1,380 Descending New York Center
09:09PM 40.7111 -75.5114 68° East 247 284 3,400 -1,200 Descending New York Center
09:10PM 40.7131 -75.4336 88° East 185 213 2,300 -780 Descending New York Center
09:11PM 40.6869 -75.3592 115° Southeast 207 238 1,800 -480 Descending New York Center
09:13PM 40.6500 -75.4333 62° Northeast  Level FlightAware Approximate
09:20PM 40.6524 -75.4404 62° Northeast  Level Estimated